sensor_id;sensor_type;location;lat;lon;timestamp;pressure;altitude;pressure_sealevel;temperature;humidity
61682;BME280;47577;43.610;25.010;2023-03-03T00:00:47;100863.06;;;5.19;81.31
61682;BME280;47577;43.610;25.010;2023-03-03T00:03:15;100866.53;;;5.24;81.95
61682;BME280;47577;43.610;25.010;2023-03-03T00:05:41;100863.03;;;5.28;81.72
61682;BME280;47577;43.610;25.010;2023-03-03T00:08:07;100858.63;;;5.29;82.12
61682;BME280;47577;43.610;25.010;2023-03-03T00:10:32;100855.09;;;5.33;81.80
61682;BME280;47577;43.610;25.010;2023-03-03T00:12:58;100855.09;;;5.31;82.39
61682;BME280;47577;43.610;25.010;2023-03-03T00:15:24;100848.97;;;5.26;81.38
61682;BME280;47577;43.610;25.010;2023-03-03T00:17:50;100850.72;;;5.23;81.73
61682;BME280;47577;43.610;25.010;2023-03-03T00:20:33;100837.53;;;5.23;81.61
61682;BME280;47577;43.610;25.010;2023-03-03T00:25:44;100833.16;;;5.22;81.75
61682;BME280;47577;43.610;25.010;2023-03-03T00:30:52;100838.38;;;5.29;82.30
61682;BME280;47577;43.610;25.010;2023-03-03T00:35:53;100823.47;;;5.31;82.42
61682;BME280;47577;43.610;25.010;2023-03-03T00:38:18;100822.56;;;5.31;82.05
61682;BME280;47577;43.610;25.010;2023-03-03T00:40:44;100820.00;;;5.23;82.60
61682;BME280;47577;43.610;25.010;2023-03-03T00:43:20;100822.66;;;5.17;82.81
61682;BME280;47577;43.610;25.010;2023-03-03T00:45:49;100822.66;;;5.11;82.39
61682;BME280;47577;43.610;25.010;2023-03-03T00:48:26;100813.88;;;5.13;83.07
61682;BME280;47577;43.610;25.010;2023-03-03T00:50:53;100812.13;;;5.12;82.69
61682;BME280;47577;43.610;25.010;2023-03-03T00:53:20;100805.97;;;5.15;82.98
61682;BME280;47577;43.610;25.010;2023-03-03T00:55:46;100802.41;;;5.19;83.06
61682;BME280;47577;43.610;25.010;2023-03-03T00:58:12;100803.34;;;5.10;83.22
61682;BME280;47577;43.610;25.010;2023-03-03T01:00:38;100804.22;;;5.11;83.29
61682;BME280;47577;43.610;25.010;2023-03-03T01:03:06;100806.00;;;5.06;82.82
61682;BME280;47577;43.610;25.010;2023-03-03T01:05:32;100799.94;;;4.84;83.20
61682;BME280;47577;43.610;25.010;2023-03-03T01:07:58;100793.72;;;4.97;82.86
61682;BME280;47577;43.610;25.010;2023-03-03T01:10:23;100791.91;;;5.07;81.48
61682;BME280;47577;43.610;25.010;2023-03-03T01:12:49;100786.63;;;5.13;82.70
61682;BME280;47577;43.610;25.010;2023-03-03T01:15:14;100788.38;;;5.20;82.17
61682;BME280;47577;43.610;25.010;2023-03-03T01:17:40;100787.47;;;5.18;82.45
61682;BME280;47577;43.610;25.010;2023-03-03T01:20:07;100791.88;;;5.15;82.46
61682;BME280;47577;43.610;25.010;2023-03-03T01:22:33;100780.47;;;5.16;82.86
61682;BME280;47577;43.610;25.010;2023-03-03T01:24:59;100769.94;;;5.16;83.25
61682;BME280;47577;43.610;25.010;2023-03-03T01:27:27;100773.47;;;5.07;83.42
61682;BME280;47577;43.610;25.010;2023-03-03T01:29:53;100780.53;;;5.03;83.56
61682;BME280;47577;43.610;25.010;2023-03-03T01:32:20;100773.53;;;5.02;83.84
61682;BME280;47577;43.610;25.010;2023-03-03T01:34:46;100770.00;;;5.02;84.06
61682;BME280;47577;43.610;25.010;2023-03-03T01:37:11;100769.09;;;5.09;83.85
61682;BME280;47577;43.610;25.010;2023-03-03T01:39:37;100756.75;;;5.14;84.83
61682;BME280;47577;43.610;25.010;2023-03-03T01:42:02;100761.09;;;5.18;84.30
61682;BME280;47577;43.610;25.010;2023-03-03T01:44:28;100759.34;;;5.20;83.94
61682;BME280;47577;43.610;25.010;2023-03-03T01:47:03;100760.22;;;5.21;83.56
61682;BME280;47577;43.610;25.010;2023-03-03T01:49:38;100751.44;;;5.23;83.51
61682;BME280;47577;43.610;25.010;2023-03-03T01:52:14;100754.09;;;5.20;84.70
61682;BME280;47577;43.610;25.010;2023-03-03T01:54:41;100754.94;;;5.21;84.27
61682;BME280;47577;43.610;25.010;2023-03-03T01:57:10;100750.53;;;5.23;84.50
61682;BME280;47577;43.610;25.010;2023-03-03T01:59:39;100755.78;;;5.26;83.46
61682;BME280;47577;43.610;25.010;2023-03-03T02:02:06;100760.19;;;5.28;83.13
61682;BME280;47577;43.610;25.010;2023-03-03T02:04:33;100754.00;;;5.31;83.89
61682;BME280;47577;43.610;25.010;2023-03-03T02:07:04;100750.50;;;5.29;83.21
61682;BME280;47577;43.610;25.010;2023-03-03T02:09:53;100744.34;;;5.30;83.16
61682;BME280;47577;43.610;25.010;2023-03-03T02:12:19;100754.94;;;5.24;82.81
61682;BME280;47577;43.610;25.010;2023-03-03T02:14:47;100752.31;;;5.21;82.98
61682;BME280;47577;43.610;25.010;2023-03-03T02:17:13;100751.44;;;5.22;82.79
61682;BME280;47577;43.610;25.010;2023-03-03T02:22:16;100753.19;;;5.21;83.60
61682;BME280;47577;43.610;25.010;2023-03-03T02:24:50;100751.47;;;5.19;83.55
61682;BME280;47577;43.610;25.010;2023-03-03T02:27:17;100747.91;;;5.20;83.77
61682;BME280;47577;43.610;25.010;2023-03-03T02:29:43;100740.00;;;5.23;83.43
61682;BME280;47577;43.610;25.010;2023-03-03T02:32:09;100747.03;;;5.24;83.52
61682;BME280;47577;43.610;25.010;2023-03-03T02:34:50;100747.00;;;5.28;83.27
61682;BME280;47577;43.610;25.010;2023-03-03T02:37:16;100744.38;;;5.27;82.63
61682;BME280;47577;43.610;25.010;2023-03-03T02:39:42;100744.38;;;5.27;83.76
61682;BME280;47577;43.610;25.010;2023-03-03T02:42:15;100754.06;;;5.22;83.63
61682;BME280;47577;43.610;25.010;2023-03-03T02:44:42;100745.34;;;5.12;83.75
61682;BME280;47577;43.610;25.010;2023-03-03T02:47:08;100751.53;;;5.06;83.88
61682;BME280;47577;43.610;25.010;2023-03-03T02:49:34;100747.16;;;5.02;83.69
61682;BME280;47577;43.610;25.010;2023-03-03T02:52:00;100745.41;;;5.03;84.22
61682;BME280;47577;43.610;25.010;2023-03-03T02:54:26;100750.66;;;5.01;85.10
61682;BME280;47577;43.610;25.010;2023-03-03T02:56:54;100742.75;;;5.04;85.07
61682;BME280;47577;43.610;25.010;2023-03-03T02:59:19;100742.75;;;5.03;84.86
61682;BME280;47577;43.610;25.010;2023-03-03T03:01:45;100740.13;;;5.01;83.77
61682;BME280;47577;43.610;25.010;2023-03-03T03:04:12;100739.25;;;5.02;84.16
61682;BME280;47577;43.610;25.010;2023-03-03T03:06:37;100734.84;;;5.01;84.69
61682;BME280;47577;43.610;25.010;2023-03-03T03:09:04;100741.00;;;5.02;85.33
61682;BME280;47577;43.610;25.010;2023-03-03T03:11:30;100736.66;;;4.94;85.13
61682;BME280;47577;43.610;25.010;2023-03-03T03:13:55;100737.50;;;5.01;84.85
61682;BME280;47577;43.610;25.010;2023-03-03T03:16:21;100737.47;;;5.04;84.55
61682;BME280;47577;43.610;25.010;2023-03-03T03:18:46;100734.84;;;5.03;83.46
61682;BME280;47577;43.610;25.010;2023-03-03T03:21:12;100741.91;;;5.01;83.31
61682;BME280;47577;43.610;25.010;2023-03-03T03:23:38;100741.94;;;4.94;83.66
61682;BME280;47577;43.610;25.010;2023-03-03T03:26:04;100740.16;;;4.97;84.17
61682;BME280;47577;43.610;25.010;2023-03-03T03:28:29;100733.09;;;4.99;85.23
61682;BME280;47577;43.610;25.010;2023-03-03T03:30:55;100729.59;;;5.01;84.08
61682;BME280;47577;43.610;25.010;2023-03-03T03:33:21;100731.34;;;5.04;85.14
61682;BME280;47577;43.610;25.010;2023-03-03T03:35:46;100728.66;;;5.07;84.55
61682;BME280;47577;43.610;25.010;2023-03-03T03:38:12;100726.03;;;5.08;84.24
61682;BME280;47577;43.610;25.010;2023-03-03T03:40:38;100725.16;;;5.08;84.54
61682;BME280;47577;43.610;25.010;2023-03-03T03:43:03;100730.41;;;5.11;84.59
61682;BME280;47577;43.610;25.010;2023-03-03T03:45:29;100727.75;;;5.17;84.41
61682;BME280;47577;43.610;25.010;2023-03-03T03:47:54;100725.97;;;5.18;84.08
61682;BME280;47577;43.610;25.010;2023-03-03T03:50:19;100725.94;;;5.21;83.65
61682;BME280;47577;43.610;25.010;2023-03-03T03:52:45;100728.56;;;5.22;83.11
61682;BME280;47577;43.610;25.010;2023-03-03T03:55:10;100716.25;;;5.26;83.67
61682;BME280;47577;43.610;25.010;2023-03-03T03:57:36;100720.63;;;5.30;83.63
61682;BME280;47577;43.610;25.010;2023-03-03T04:00:02;100718.88;;;5.27;83.01
61682;BME280;47577;43.610;25.010;2023-03-03T04:02:28;100718.88;;;5.26;82.86
61682;BME280;47577;43.610;25.010;2023-03-03T04:04:53;100723.28;;;5.24;83.92
61682;BME280;47577;43.610;25.010;2023-03-03T04:07:19;100720.69;;;5.19;84.04
61682;BME280;47577;43.610;25.010;2023-03-03T04:09:44;100714.59;;;5.11;83.45
61682;BME280;47577;43.610;25.010;2023-03-03T04:12:09;100721.66;;;5.06;83.11
61682;BME280;47577;43.610;25.010;2023-03-03T04:14:36;100717.28;;;5.02;83.85
61682;BME280;47577;43.610;25.010;2023-03-03T04:17:02;100719.03;;;5.06;83.63
61682;BME280;47577;43.610;25.010;2023-03-03T04:19:27;100719.91;;;5.02;84.09
61682;BME280;47577;43.610;25.010;2023-03-03T04:21:52;100725.19;;;5.00;82.71
61682;BME280;47577;43.610;25.010;2023-03-03T04:24:18;100713.78;;;5.03;82.99
61682;BME280;47577;43.610;25.010;2023-03-03T04:26:43;100709.34;;;5.06;83.22
61682;BME280;47577;43.610;25.010;2023-03-03T04:29:09;100715.47;;;5.08;83.08
61682;BME280;47577;43.610;25.010;2023-03-03T04:31:34;100706.72;;;5.06;82.66
61682;BME280;47577;43.610;25.010;2023-03-03T04:34:00;100702.28;;;5.10;82.16
61682;BME280;47577;43.610;25.010;2023-03-03T04:36:25;100707.53;;;5.15;83.23
61682;BME280;47577;43.610;25.010;2023-03-03T04:38:50;100706.66;;;5.19;82.98
61682;BME280;47577;43.610;25.010;2023-03-03T04:41:16;100708.34;;;5.23;83.29
61682;BME280;47577;43.610;25.010;2023-03-03T04:43:41;100704.84;;;5.22;83.18
61682;BME280;47577;43.610;25.010;2023-03-03T04:46:07;100706.63;;;5.23;82.84
61682;BME280;47577;43.610;25.010;2023-03-03T04:48:32;100705.72;;;5.21;83.62
61682;BME280;47577;43.610;25.010;2023-03-03T04:50:58;100708.38;;;5.18;83.69
61682;BME280;47577;43.610;25.010;2023-03-03T04:53:23;100696.06;;;5.22;84.35
61682;BME280;47577;43.610;25.010;2023-03-03T04:55:50;100703.09;;;5.23;83.44
61682;BME280;47577;43.610;25.010;2023-03-03T04:58:16;100700.47;;;5.20;84.47
61682;BME280;47577;43.610;25.010;2023-03-03T05:00:42;100699.59;;;5.18;83.60
61682;BME280;47577;43.610;25.010;2023-03-03T05:03:09;100691.69;;;5.18;83.61
61682;BME280;47577;43.610;25.010;2023-03-03T05:05:34;100701.38;;;5.17;83.46
61682;BME280;47577;43.610;25.010;2023-03-03T05:08:00;100698.75;;;5.14;83.22
61682;BME280;47577;43.610;25.010;2023-03-03T05:10:25;100701.38;;;5.17;83.36
61682;BME280;47577;43.610;25.010;2023-03-03T05:12:51;100704.88;;;5.18;83.85
61682;BME280;47577;43.610;25.010;2023-03-03T05:15:16;100698.75;;;5.16;82.71
61682;BME280;47577;43.610;25.010;2023-03-03T05:17:42;100700.47;;;5.17;83.32
61682;BME280;47577;43.610;25.010;2023-03-03T05:20:07;100698.75;;;5.14;83.39
61682;BME280;47577;43.610;25.010;2023-03-03T05:22:34;100708.44;;;5.13;83.64
61682;BME280;47577;43.610;25.010;2023-03-03T05:24:59;100697.91;;;5.12;83.81
61682;BME280;47577;43.610;25.010;2023-03-03T05:27:25;100698.78;;;5.12;83.34
61682;BME280;47577;43.610;25.010;2023-03-03T05:29:50;100700.53;;;5.15;83.36
61682;BME280;47577;43.610;25.010;2023-03-03T05:32:16;100703.13;;;5.17;82.94
61682;BME280;47577;43.610;25.010;2023-03-03T05:34:41;100705.81;;;5.12;83.50
61682;BME280;47577;43.610;25.010;2023-03-03T05:37:07;100703.19;;;5.10;83.45
61682;BME280;47577;43.610;25.010;2023-03-03T05:39:33;100707.53;;;5.13;83.46
61682;BME280;47577;43.610;25.010;2023-03-03T05:41:58;100711.94;;;5.16;82.99
61682;BME280;47577;43.610;25.010;2023-03-03T05:44:24;100713.69;;;5.15;82.71
61682;BME280;47577;43.610;25.010;2023-03-03T05:46:50;100717.19;;;5.17;82.85
61682;BME280;47577;43.610;25.010;2023-03-03T05:49:15;100722.44;;;5.22;82.45
61682;BME280;47577;43.610;25.010;2023-03-03T05:51:41;100716.25;;;5.23;81.81
61682;BME280;47577;43.610;25.010;2023-03-03T05:54:06;100722.44;;;5.22;81.71
61682;BME280;47577;43.610;25.010;2023-03-03T05:56:32;100720.69;;;5.21;82.22
61682;BME280;47577;43.610;25.010;2023-03-03T05:58:57;100725.09;;;5.22;82.35
61682;BME280;47577;43.610;25.010;2023-03-03T06:01:22;100724.16;;;5.24;81.99
61682;BME280;47577;43.610;25.010;2023-03-03T06:03:48;100720.63;;;5.28;81.60
61682;BME280;47577;43.610;25.010;2023-03-03T06:06:13;100721.50;;;5.29;82.53
61682;BME280;47577;43.610;25.010;2023-03-03T06:08:41;100720.63;;;5.28;82.37
61682;BME280;47577;43.610;25.010;2023-03-03T06:11:06;100725.00;;;5.31;82.32
61682;BME280;47577;43.610;25.010;2023-03-03T06:13:32;100724.13;;;5.32;82.39
61682;BME280;47577;43.610;25.010;2023-03-03T06:15:57;100723.25;;;5.33;81.60
61682;BME280;47577;43.610;25.010;2023-03-03T06:18:23;100721.47;;;5.34;81.23
61682;BME280;47577;43.610;25.010;2023-03-03T06:20:52;100729.38;;;5.37;81.24
61682;BME280;47577;43.610;25.010;2023-03-03T06:23:17;100725.81;;;5.41;81.10
61682;BME280;47577;43.610;25.010;2023-03-03T06:25:43;100728.41;;;5.44;80.96
61682;BME280;47577;43.610;25.010;2023-03-03T06:28:08;100737.22;;;5.46;80.49
61682;BME280;47577;43.610;25.010;2023-03-03T06:30:34;100729.31;;;5.46;80.27
61682;BME280;47577;43.610;25.010;2023-03-03T06:32:59;100736.31;;;5.47;80.50
61682;BME280;47577;43.610;25.010;2023-03-03T06:35:24;100730.19;;;5.45;80.55
61682;BME280;47577;43.610;25.010;2023-03-03T06:37:50;100742.44;;;5.52;80.61
61682;BME280;47577;43.610;25.010;2023-03-03T06:40:15;100740.66;;;5.57;80.40
61682;BME280;47577;43.610;25.010;2023-03-03T06:42:41;100745.03;;;5.58;80.09
61682;BME280;47577;43.610;25.010;2023-03-03T06:45:06;100741.50;;;5.59;79.92
61682;BME280;47577;43.610;25.010;2023-03-03T06:47:32;100742.44;;;5.50;80.72
61682;BME280;47577;43.610;25.010;2023-03-03T06:49:58;100738.91;;;5.52;80.51
61682;BME280;47577;43.610;25.010;2023-03-03T06:52:25;100742.44;;;5.50;80.18
61682;BME280;47577;43.610;25.010;2023-03-03T06:54:55;100745.28;;;5.20;80.53
61682;BME280;47577;43.610;25.010;2023-03-03T06:57:39;100737.28;;;5.38;80.36
61682;BME280;47577;43.610;25.010;2023-03-03T07:00:11;100735.47;;;5.43;80.17
61682;BME280;47577;43.610;25.010;2023-03-03T07:02:39;100733.69;;;5.42;80.04
61682;BME280;47577;43.610;25.010;2023-03-03T07:05:06;100727.53;;;5.46;80.11
61682;BME280;47577;43.610;25.010;2023-03-03T07:07:31;100734.59;;;5.43;80.70
61682;BME280;47577;43.610;25.010;2023-03-03T07:09:57;100727.63;;;5.31;81.18
61682;BME280;47577;43.610;25.010;2023-03-03T07:12:28;100730.22;;;5.39;81.58
61682;BME280;47577;43.610;25.010;2023-03-03T07:17:31;100724.03;;;5.47;80.26
61682;BME280;47577;43.610;25.010;2023-03-03T07:19:58;100726.66;;;5.47;80.31
61682;BME280;47577;43.610;25.010;2023-03-03T07:22:26;100721.34;;;5.50;80.55
61682;BME280;47577;43.610;25.010;2023-03-03T07:24:53;100715.25;;;5.42;81.12
61682;BME280;47577;43.610;25.010;2023-03-03T07:27:22;100716.06;;;5.50;81.07
61682;BME280;47577;43.610;25.010;2023-03-03T07:29:50;100716.00;;;5.57;81.19
61682;BME280;47577;43.610;25.010;2023-03-03T07:32:26;100716.84;;;5.60;80.95
61682;BME280;47577;43.610;25.010;2023-03-03T07:34:55;100715.94;;;5.66;80.48
61682;BME280;47577;43.610;25.010;2023-03-03T07:37:25;100711.53;;;5.65;79.67
61682;BME280;47577;43.610;25.010;2023-03-03T07:39:56;100704.59;;;5.55;79.28
61682;BME280;47577;43.610;25.010;2023-03-03T07:42:40;100706.41;;;5.49;79.17
61682;BME280;47577;43.610;25.010;2023-03-03T07:45:23;100713.56;;;5.34;79.37
61682;BME280;47577;43.610;25.010;2023-03-03T07:47:50;100713.44;;;5.49;79.27
61682;BME280;47577;43.610;25.010;2023-03-03T07:50:18;100712.63;;;5.39;78.59
61682;BME280;47577;43.610;25.010;2023-03-03T07:52:53;100703.03;;;5.32;78.64
61682;BME280;47577;43.610;25.010;2023-03-03T07:55:34;100702.91;;;5.47;79.41
61682;BME280;47577;43.610;25.010;2023-03-03T08:03:24;100703.59;;;5.70;79.48
61682;BME280;47577;43.610;25.010;2023-03-03T08:05:50;100700.91;;;5.74;79.42
61682;BME280;47577;43.610;25.010;2023-03-03T08:08:29;100702.75;;;5.67;79.52
61682;BME280;47577;43.610;25.010;2023-03-03T08:10:58;100698.34;;;5.66;79.50
61682;BME280;47577;43.610;25.010;2023-03-03T08:13:28;100697.50;;;5.63;80.39
61682;BME280;47577;43.610;25.010;2023-03-03T08:15:59;100697.47;;;5.67;80.83
61682;BME280;47577;43.610;25.010;2023-03-03T08:18:29;100700.91;;;5.77;80.26
61682;BME280;47577;43.610;25.010;2023-03-03T08:20:59;100693.75;;;5.87;79.12
61682;BME280;47577;43.610;25.010;2023-03-03T08:23:24;100696.44;;;5.84;79.42
61682;BME280;47577;43.610;25.010;2023-03-03T08:25:50;100698.31;;;5.71;79.03
61682;BME280;47577;43.610;25.010;2023-03-03T08:28:19;100687.69;;;5.79;79.18
61682;BME280;47577;43.610;25.010;2023-03-03T08:30:45;100684.22;;;5.75;78.76
61682;BME280;47577;43.610;25.010;2023-03-03T08:33:10;100679.69;;;5.90;77.84
61682;BME280;47577;43.610;25.010;2023-03-03T08:35:36;100681.41;;;5.91;78.10
61682;BME280;47577;43.610;25.010;2023-03-03T08:38:02;100681.38;;;5.95;78.07
61682;BME280;47577;43.610;25.010;2023-03-03T08:40:28;100687.50;;;5.99;78.67
61682;BME280;47577;43.610;25.010;2023-03-03T08:42:53;100685.66;;;6.07;78.72
61682;BME280;47577;43.610;25.010;2023-03-03T08:45:19;100674.25;;;6.03;78.42
61682;BME280;47577;43.610;25.010;2023-03-03T08:47:44;100677.63;;;6.18;78.18
61682;BME280;47577;43.610;25.010;2023-03-03T08:50:10;100678.47;;;6.20;77.43
61682;BME280;47577;43.610;25.010;2023-03-03T08:52:35;100677.59;;;6.21;78.83
61682;BME280;47577;43.610;25.010;2023-03-03T08:55:01;100684.94;;;5.90;78.44
61682;BME280;47577;43.610;25.010;2023-03-03T08:57:26;100684.78;;;6.10;78.74
61682;BME280;47577;43.610;25.010;2023-03-03T08:59:52;100681.25;;;6.11;78.57
61682;BME280;47577;43.610;25.010;2023-03-03T09:02:17;100667.34;;;5.90;77.30
61682;BME280;47577;43.610;25.010;2023-03-03T09:04:42;100689.25;;;6.01;77.89
61682;BME280;47577;43.610;25.010;2023-03-03T09:07:08;100678.06;;;5.70;78.33
61682;BME280;47577;43.610;25.010;2023-03-03T09:09:33;100670.00;;;5.87;78.74
61682;BME280;47577;43.610;25.010;2023-03-03T09:12:08;100673.31;;;6.12;77.43
61682;BME280;47577;43.610;25.010;2023-03-03T09:14:38;100671.28;;;6.33;77.91
61682;BME280;47577;43.610;25.010;2023-03-03T09:17:06;100670.25;;;6.46;79.03
61682;BME280;47577;43.610;25.010;2023-03-03T09:19:43;100667.56;;;6.49;77.80
61682;BME280;47577;43.610;25.010;2023-03-03T09:24:41;100672.09;;;6.38;76.60
61682;BME280;47577;43.610;25.010;2023-03-03T09:27:11;100659.78;;;6.40;76.96
61682;BME280;47577;43.610;25.010;2023-03-03T09:29:40;100656.09;;;6.53;77.17
61682;BME280;47577;43.610;25.010;2023-03-03T09:34:41;100661.75;;;6.88;77.35
61682;BME280;47577;43.610;25.010;2023-03-03T09:39:47;100659.72;;;7.08;77.91
61682;BME280;47577;43.610;25.010;2023-03-03T09:45:03;100653.50;;;7.09;74.44
61682;BME280;47577;43.610;25.010;2023-03-03T09:47:38;100651.94;;;6.98;73.34
61682;BME280;47577;43.610;25.010;2023-03-03T09:55:28;100650.69;;;7.20;76.70
61682;BME280;47577;43.610;25.010;2023-03-03T09:58:02;100644.47;;;7.24;75.62
61682;BME280;47577;43.610;25.010;2023-03-03T10:00:41;100640.88;;;7.28;74.39
61682;BME280;47577;43.610;25.010;2023-03-03T10:10:46;100633.28;;;7.61;76.59
61682;BME280;47577;43.610;25.010;2023-03-03T10:13:19;100625.16;;;7.69;75.46
61682;BME280;47577;43.610;25.010;2023-03-03T10:18:19;100620.34;;;7.91;77.66
61682;BME280;47577;43.610;25.010;2023-03-03T10:20:58;100625.19;;;7.67;75.13
61682;BME280;47577;43.610;25.010;2023-03-03T10:26:16;100615.13;;;7.88;77.15
61682;BME280;47577;43.610;25.010;2023-03-03T10:29:00;100612.44;;;7.90;74.83
61682;BME280;47577;43.610;25.010;2023-03-03T10:31:35;100613.38;;;7.85;75.56
61682;BME280;47577;43.610;25.010;2023-03-03T10:44:08;100601.63;;;8.02;77.60
61682;BME280;47577;43.610;25.010;2023-03-03T10:52:50;100584.88;;;8.00;76.24
61682;BME280;47577;43.610;25.010;2023-03-03T11:06:08;100568.88;;;8.06;74.45
61682;BME280;47577;43.610;25.010;2023-03-03T11:13:41;100558.25;;;8.08;74.73
61682;BME280;47577;43.610;25.010;2023-03-03T11:16:13;100552.06;;;8.07;74.53
61682;BME280;47577;43.610;25.010;2023-03-03T11:24:25;100542.56;;;7.97;73.96
61682;BME280;47577;43.610;25.010;2023-03-03T11:27:00;100547.97;;;7.92;73.77
61682;BME280;47577;43.610;25.010;2023-03-03T11:29:38;100548.84;;;7.93;76.39
61682;BME280;47577;43.610;25.010;2023-03-03T11:37:46;100549.41;;;8.09;74.97
61682;BME280;47577;43.610;25.010;2023-03-03T11:40:19;100545.88;;;8.06;75.37
61682;BME280;47577;43.610;25.010;2023-03-03T11:42:50;100540.53;;;8.10;73.51
61682;BME280;47577;43.610;25.010;2023-03-03T11:45:24;100549.50;;;8.04;74.98
61682;BME280;47577;43.610;25.010;2023-03-03T11:55:40;100538.66;;;8.16;72.79
61682;BME280;47577;43.610;25.010;2023-03-03T12:01:35;100530.72;;;8.15;74.40
61682;BME280;47577;43.610;25.010;2023-03-03T12:03:57;100533.38;;;8.15;73.83
61682;BME280;47577;43.610;25.010;2023-03-03T12:09:08;100530.59;;;8.19;72.40
61682;BME280;47577;43.610;25.010;2023-03-03T12:16:45;100539.38;;;8.23;72.25
61682;BME280;47577;43.610;25.010;2023-03-03T12:29:42;100532.06;;;8.34;73.87
61682;BME280;47577;43.610;25.010;2023-03-03T12:34:43;100531.09;;;8.37;72.22
61682;BME280;47577;43.610;25.010;2023-03-03T12:39:57;100538.25;;;8.33;71.14
61682;BME280;47577;43.610;25.010;2023-03-03T12:48:13;100532.34;;;7.80;71.29
61682;BME280;47577;43.610;25.010;2023-03-03T12:55:46;100519.81;;;7.43;73.59
61682;BME280;47577;43.610;25.010;2023-03-03T13:03:10;100524.69;;;7.19;73.05
61682;BME280;47577;43.610;25.010;2023-03-03T13:05:51;100516.50;;;7.31;74.21
61682;BME280;47577;43.610;25.010;2023-03-03T13:08:34;100522.88;;;7.21;74.16
61682;BME280;47577;43.610;25.010;2023-03-03T13:16:30;100524.00;;;7.55;72.58
61682;BME280;47577;43.610;25.010;2023-03-03T13:21:30;100514.09;;;7.19;73.48
61682;BME280;47577;43.610;25.010;2023-03-03T13:24:20;100518.16;;;7.39;74.28
61682;BME280;47577;43.610;25.010;2023-03-03T13:31:58;100518.72;;;7.06;74.26
61682;BME280;47577;43.610;25.010;2023-03-03T13:34:32;100515.63;;;7.32;73.54
61682;BME280;47577;43.610;25.010;2023-03-03T13:37:04;100513.59;;;7.45;73.01
61682;BME280;47577;43.610;25.010;2023-03-03T13:39:33;100517.84;;;7.54;73.75
61682;BME280;47577;43.610;25.010;2023-03-03T13:42:07;100520.84;;;7.36;73.13
61682;BME280;47577;43.610;25.010;2023-03-03T13:44:39;100503.88;;;7.46;74.02
61682;BME280;47577;43.610;25.010;2023-03-03T14:04:29;100520.81;;;7.37;74.68
61682;BME280;47577;43.610;25.010;2023-03-03T14:06:58;100524.03;;;7.53;72.97
61682;BME280;47577;43.610;25.010;2023-03-03T14:09:44;100520.47;;;7.06;73.63
61682;BME280;47577;43.610;25.010;2023-03-03T14:12:20;100515.69;;;7.28;74.26
61682;BME280;47577;43.610;25.010;2023-03-03T14:15:02;100520.44;;;7.09;74.96
61682;BME280;47577;43.610;25.010;2023-03-03T14:18:08;100513.22;;;7.19;75.21
61682;BME280;47577;43.610;25.010;2023-03-03T14:25:23;100516.06;;;7.08;75.57
61682;BME280;47577;43.610;25.010;2023-03-03T14:35:40;100513.00;;;7.31;75.75
61682;BME280;47577;43.610;25.010;2023-03-03T14:38:14;100510.03;;;7.46;74.21
61682;BME280;47577;43.610;25.010;2023-03-03T14:40:41;100513.06;;;7.26;75.39
61682;BME280;47577;43.610;25.010;2023-03-03T14:43:32;100512.78;;;6.93;76.80
61682;BME280;47577;43.610;25.010;2023-03-03T14:48:51;100511.59;;;7.11;76.67
61682;BME280;47577;43.610;25.010;2023-03-03T14:51:23;100503.69;;;7.10;76.92
61682;BME280;47577;43.610;25.010;2023-03-03T14:53:49;100511.78;;;6.99;77.79
61682;BME280;47577;43.610;25.010;2023-03-03T14:58:46;100514.38;;;7.02;79.34
61682;BME280;47577;43.610;25.010;2023-03-03T15:01:31;100506.34;;;7.08;79.85
61682;BME280;47577;43.610;25.010;2023-03-03T15:04:09;100513.66;;;6.92;79.77
61682;BME280;47577;43.610;25.010;2023-03-03T15:06:48;100504.78;;;6.98;79.46
61682;BME280;47577;43.610;25.010;2023-03-03T15:11:53;100504.78;;;6.98;81.76
61682;BME280;47577;43.610;25.010;2023-03-03T15:14:20;100503.69;;;7.08;81.02
61682;BME280;47577;43.610;25.010;2023-03-03T15:16:47;100501.91;;;7.10;79.36
61682;BME280;47577;43.610;25.010;2023-03-03T15:21:44;100497.50;;;7.09;80.54
61682;BME280;47577;43.610;25.010;2023-03-03T15:24:27;100503.03;;;6.97;80.53
61682;BME280;47577;43.610;25.010;2023-03-03T15:27:03;100513.59;;;6.97;81.06
61682;BME280;47577;43.610;25.010;2023-03-03T15:29:47;100511.00;;;6.94;81.43
61682;BME280;47577;43.610;25.010;2023-03-03T15:37:25;100513.66;;;6.92;82.24
61682;BME280;47577;43.610;25.010;2023-03-03T15:42:19;100523.72;;;6.69;82.00
61682;BME280;47577;43.610;25.010;2023-03-03T15:45:01;100523.84;;;6.63;83.48
61682;BME280;47577;43.610;25.010;2023-03-03T15:52:37;100519.88;;;6.88;83.43
61682;BME280;47577;43.610;25.010;2023-03-03T15:55:09;100526.88;;;6.94;81.30
61682;BME280;47577;43.610;25.010;2023-03-03T16:07:30;100524.56;;;6.72;83.66
61682;BME280;47577;43.610;25.010;2023-03-03T16:15:20;100533.44;;;6.68;85.20
61682;BME280;47577;43.610;25.010;2023-03-03T16:22:55;100536.53;;;6.97;84.94
61682;BME280;47577;43.610;25.010;2023-03-03T16:25:41;100540.78;;;7.05;84.65
61682;BME280;47577;43.610;25.010;2023-03-03T16:28:17;100542.53;;;7.06;84.89
61682;BME280;47577;43.610;25.010;2023-03-03T16:31:02;100541.66;;;7.04;84.47
61682;BME280;47577;43.610;25.010;2023-03-03T16:39:11;100551.28;;;7.08;84.78
61682;BME280;47577;43.610;25.010;2023-03-03T16:41:58;100549.47;;;7.12;84.47
61682;BME280;47577;43.610;25.010;2023-03-03T16:46:53;100553.84;;;7.14;84.36
61682;BME280;47577;43.610;25.010;2023-03-03T16:54:19;100556.75;;;6.98;84.44
61682;BME280;47577;43.610;25.010;2023-03-03T16:57:07;100558.56;;;6.95;84.54
61682;BME280;47577;43.610;25.010;2023-03-03T17:04:47;100568.28;;;6.95;85.23